createdAt,value
2023-05-27T00:04:25.898Z,12.48
2023-05-27T00:09:35.618Z,12.45
2023-05-27T00:14:37.531Z,12.38
2023-05-27T00:19:45.245Z,12.32
2023-05-27T00:24:50.120Z,12.21
2023-05-27T00:30:05.051Z,12.12
2023-05-27T00:35:10.992Z,11.99
2023-05-27T00:40:15.876Z,11.88
2023-05-27T00:45:17.922Z,11.81
2023-05-27T00:50:25.835Z,11.72
2023-05-27T00:56:01.385Z,11.64
2023-05-27T01:01:26.028Z,11.57
2023-05-27T01:06:37.380Z,11.48
2023-05-27T01:11:55.190Z,11.32
2023-05-27T01:17:09.274Z,11.21
2023-05-27T01:22:15.219Z,11.08
2023-05-27T01:27:37.477Z,11.00
2023-05-27T01:33:02.550Z,10.92
2023-05-27T01:38:19.135Z,10.90
2023-05-27T01:43:49.165Z,10.86
2023-05-27T01:49:31.716Z,10.77
2023-05-27T01:54:58.776Z,10.72
2023-05-27T02:00:43.650Z,10.64
2023-05-27T02:05:48.174Z,10.51
2023-05-27T02:11:01.436Z,10.47
2023-05-27T02:16:06.856Z,10.42
2023-05-27T02:21:29.418Z,10.36
2023-05-27T02:26:45.907Z,10.32
2023-05-27T02:31:50.724Z,10.32
2023-05-27T02:37:26.178Z,10.31
2023-05-27T02:42:49.512Z,10.29
2023-05-27T02:48:27.360Z,10.23
2023-05-27T02:53:51.562Z,10.16
2023-05-27T02:58:55.918Z,10.14
2023-05-27T03:04:18.491Z,10.21
2023-05-27T03:09:20.863Z,10.23
2023-05-27T03:14:24.941Z,10.20
2023-05-27T03:19:28.319Z,10.22
2023-05-27T03:24:34.220Z,10.20
2023-05-27T03:30:03.428Z,10.21
2023-05-27T03:35:06.106Z,10.26
2023-05-27T03:40:18.880Z,10.32
2023-05-27T03:45:26.031Z,10.34
2023-05-27T03:50:43.683Z,10.38
2023-05-27T03:56:06.419Z,10.40
2023-05-27T04:01:24.264Z,10.40
2023-05-27T04:06:45.097Z,10.41
2023-05-27T04:12:06.669Z,10.42
2023-05-27T04:17:11.923Z,10.44
2023-05-27T04:22:19.424Z,10.52
2023-05-27T04:27:25.529Z,10.62
2023-05-27T04:32:38.119Z,10.66
2023-05-27T04:37:48.345Z,10.79
2023-05-27T04:43:03.749Z,10.87
2023-05-27T04:48:26.797Z,10.93
2023-05-27T04:53:29.078Z,11.05
2023-05-27T04:58:46.871Z,11.24
2023-05-27T05:04:15.013Z,11.51
2023-05-27T05:09:26.635Z,11.75
2023-05-27T05:14:28.938Z,12.01
2023-05-27T05:19:46.264Z,12.20
2023-05-27T05:24:49.794Z,12.39
2023-05-27T05:30:22.873Z,12.52
2023-05-27T05:35:28.777Z,12.73
2023-05-27T05:40:40.439Z,12.90
2023-05-27T05:45:49.832Z,13.01
2023-05-27T05:50:54.169Z,13.20
2023-05-27T05:56:22.253Z,13.41
2023-05-27T06:01:27.621Z,13.58
2023-05-27T06:06:50.693Z,13.84
2023-05-27T06:12:12.986Z,13.99
2023-05-27T06:17:22.013Z,14.09
2023-05-27T06:22:44.484Z,14.24
2023-05-27T06:28:42.125Z,14.42
2023-05-27T06:33:44.584Z,14.39
2023-05-27T06:38:49.798Z,14.35
2023-05-27T06:43:52.226Z,14.55
2023-05-27T06:49:32.865Z,14.80
2023-05-27T06:54:37.628Z,14.94
2023-05-27T07:00:08.803Z,15.15
2023-05-27T07:05:17.170Z,15.33
2023-05-27T07:10:24.668Z,15.43
2023-05-27T07:15:31.462Z,15.53
2023-05-27T07:20:35.108Z,15.64
2023-05-27T07:25:38.817Z,15.77
2023-05-27T07:30:41.255Z,16.01
2023-05-27T07:35:45.872Z,16.23
2023-05-27T07:40:47.853Z,16.54
2023-05-27T07:45:50.719Z,16.71
2023-05-27T07:50:52.968Z,16.86
2023-05-27T07:55:55.237Z,16.91
2023-05-27T08:00:57.743Z,17.06
2023-05-27T08:06:00.332Z,17.13
2023-05-27T08:11:16.580Z,17.20
2023-05-27T08:16:30.805Z,17.40
2023-05-27T08:21:43.806Z,17.40
2023-05-27T08:27:01.353Z,17.63
2023-05-27T08:32:14.240Z,17.87
2023-05-27T08:37:16.481Z,17.99
2023-05-27T08:42:19.878Z,18.01
2023-05-27T08:47:21.811Z,18.00
2023-05-27T08:52:27.388Z,18.09
2023-05-27T08:57:30.845Z,18.06
2023-05-27T09:02:33.025Z,18.06
2023-05-27T09:07:35.051Z,18.22
2023-05-27T09:12:37.157Z,18.27
2023-05-27T09:17:42.944Z,18.35
2023-05-27T09:22:45.058Z,18.40
2023-05-27T09:27:47.211Z,18.43
2023-05-27T09:32:49.167Z,18.41
2023-05-27T09:37:51.568Z,18.45
2023-05-27T09:42:54.304Z,18.65
2023-05-27T09:47:58.559Z,18.75
2023-05-27T09:53:10.907Z,18.71
2023-05-27T09:58:14.911Z,18.63
2023-05-27T10:03:20.946Z,18.64
2023-05-27T10:08:26.500Z,18.68
2023-05-27T10:13:30.138Z,18.73
2023-05-27T10:18:34.553Z,18.78
2023-05-27T10:23:36.901Z,18.88
2023-05-27T10:28:43.552Z,18.89
2023-05-27T10:33:49.147Z,18.81
2023-05-27T10:38:57.699Z,18.87
2023-05-27T10:44:00.415Z,19.05
2023-05-27T10:49:36.177Z,19.04
2023-05-27T10:54:38.781Z,19.13
2023-05-27T10:59:57.725Z,19.11
2023-05-27T11:05:01.613Z,19.08
2023-05-27T11:10:05.068Z,19.08
2023-05-27T11:15:07.253Z,19.00
2023-05-27T11:20:12.286Z,19.15
2023-05-27T11:25:14.064Z,19.18
2023-05-27T11:30:16.962Z,19.23
2023-05-27T11:35:19.597Z,19.29
2023-05-27T11:40:21.785Z,19.25
2023-05-27T11:45:23.885Z,19.29
2023-05-27T11:50:27.916Z,19.38
2023-05-27T11:55:30.713Z,19.36
2023-05-27T12:00:32.593Z,19.40
2023-05-27T12:05:35.709Z,19.37
2023-05-27T12:10:37.761Z,19.48
2023-05-27T12:15:39.687Z,19.61
2023-05-27T12:20:42.317Z,19.64
2023-05-27T12:25:44.203Z,19.54
2023-05-27T12:30:47.839Z,19.59
2023-05-27T12:35:49.983Z,19.62
2023-05-27T12:40:52.900Z,19.65
2023-05-27T12:45:54.753Z,19.73
2023-05-27T12:50:56.573Z,19.77
2023-05-27T12:55:59.305Z,19.78
2023-05-27T13:01:01.201Z,19.82
2023-05-27T13:06:03.168Z,19.96
2023-05-27T13:11:05.142Z,20.04
2023-05-27T13:16:07.373Z,20.02
2023-05-27T13:21:09.597Z,19.92
2023-05-27T13:26:12.180Z,19.87
2023-05-27T13:31:14.920Z,19.90
2023-05-27T13:36:16.811Z,19.92
2023-05-27T13:41:18.579Z,20.00
2023-05-27T13:46:20.703Z,20.06
2023-05-27T13:51:22.799Z,19.99
2023-05-27T13:56:25.571Z,19.92
2023-05-27T14:01:27.490Z,19.96
2023-05-27T14:06:30.268Z,19.94
2023-05-27T14:11:32.089Z,19.94
2023-05-27T14:16:34.158Z,19.90
2023-05-27T14:21:35.988Z,19.90
2023-05-27T14:26:38.416Z,19.88
2023-05-27T14:31:40.532Z,19.86
2023-05-27T14:36:42.595Z,19.89
2023-05-27T14:41:44.454Z,19.87
2023-05-27T14:46:46.548Z,19.82
2023-05-27T14:51:48.663Z,19.82
2023-05-27T14:56:50.588Z,19.82
2023-05-27T15:01:52.308Z,19.82
2023-05-27T15:06:54.058Z,19.79
2023-05-27T15:11:55.949Z,19.75
2023-05-27T15:16:57.791Z,19.76
2023-05-27T15:21:59.846Z,19.78
2023-05-27T15:27:05.888Z,19.73
2023-05-27T15:32:08.145Z,19.68
2023-05-27T15:37:10.115Z,19.64
2023-05-27T15:42:12.112Z,19.64
2023-05-27T15:47:14.189Z,19.63
2023-05-27T15:52:16.837Z,19.57
2023-05-27T15:57:18.964Z,19.52
2023-05-27T16:02:21.055Z,19.48
2023-05-27T16:07:23.048Z,19.45
2023-05-27T16:12:25.614Z,19.44
2023-05-27T16:17:29.131Z,19.47
2023-05-27T16:22:31.594Z,19.43
2023-05-27T16:27:33.384Z,19.35
2023-05-27T16:32:35.361Z,19.30
2023-05-27T16:37:38.605Z,19.32
2023-05-27T16:42:41.163Z,19.31
2023-05-27T16:47:43.120Z,19.29
2023-05-27T16:52:45.405Z,19.20
2023-05-27T16:57:47.366Z,19.11
2023-05-27T17:02:49.274Z,19.06
2023-05-27T17:07:51.373Z,19.05
2023-05-27T17:12:53.489Z,18.97
2023-05-27T17:17:55.862Z,18.92
2023-05-27T17:22:58.203Z,18.81
2023-05-27T17:28:00.143Z,18.80
2023-05-27T17:33:02.460Z,18.74
2023-05-27T17:38:05.075Z,18.68
2023-05-27T17:43:06.908Z,18.55
2023-05-27T17:48:12.762Z,18.43
2023-05-27T17:53:15.012Z,18.32
2023-05-27T17:58:16.968Z,18.23
2023-05-27T18:03:19.442Z,18.12
2023-05-27T18:08:22.910Z,17.99
2023-05-27T18:13:26.283Z,17.85
2023-05-27T18:18:29.836Z,17.72
2023-05-27T18:23:35.186Z,17.60
2023-05-27T18:28:37.215Z,17.50
2023-05-27T18:33:59.544Z,17.41
2023-05-27T18:39:02.205Z,17.31
2023-05-27T18:44:07.299Z,17.19
2023-05-27T18:49:12.648Z,17.03
2023-05-27T18:54:15.804Z,16.84
2023-05-27T18:59:28.965Z,16.66
2023-05-27T19:04:31.391Z,16.48
2023-05-27T19:10:04.305Z,16.26
2023-05-27T19:15:07.690Z,16.10
2023-05-27T19:20:10.585Z,15.96
2023-05-27T19:25:12.873Z,15.85
2023-05-27T19:30:17.990Z,15.73
2023-05-27T19:35:20.469Z,15.62
2023-05-27T19:40:23.465Z,15.46
2023-05-27T19:45:25.849Z,15.36
2023-05-27T19:50:28.937Z,15.26
2023-05-27T19:55:31.208Z,15.14
2023-05-27T20:00:33.549Z,15.01
2023-05-27T20:05:35.839Z,14.91
2023-05-27T20:10:40.523Z,14.71
2023-05-27T20:15:42.759Z,14.59
2023-05-27T20:20:48.590Z,14.48
2023-05-27T20:25:51.229Z,14.36
2023-05-27T20:30:54.946Z,14.28
2023-05-27T20:35:57.317Z,14.13
2023-05-27T20:40:59.507Z,14.06
2023-05-27T20:46:01.699Z,13.96
2023-05-27T20:51:06.619Z,13.85
2023-05-27T20:56:08.559Z,13.79
2023-05-27T21:01:10.399Z,13.72
2023-05-27T21:06:27.748Z,13.61
2023-05-27T21:11:30.295Z,13.51
2023-05-27T21:16:35.448Z,13.43
2023-05-27T21:21:37.477Z,13.34
2023-05-27T21:26:39.891Z,13.24
2023-05-27T21:31:44.175Z,13.12
2023-05-27T21:36:49.453Z,13.01
2023-05-27T21:41:57.408Z,12.94
2023-05-27T21:47:02.740Z,12.85
2023-05-27T21:52:07.605Z,12.76
2023-05-27T21:57:29.919Z,12.70
2023-05-27T22:02:56.066Z,12.65
2023-05-27T22:08:07.662Z,12.55
2023-05-27T22:13:10.066Z,12.45
2023-05-27T22:18:17.836Z,12.35
2023-05-27T22:23:20.900Z,12.30
2023-05-27T22:28:30.490Z,12.23
2023-05-27T22:33:32.887Z,12.15
2023-05-27T22:38:47.534Z,12.13
2023-05-27T22:43:57.544Z,12.13
2023-05-27T22:49:30.097Z,12.10
2023-05-27T22:54:55.295Z,11.93
2023-05-27T23:00:37.989Z,11.84
2023-05-27T23:06:41.890Z,11.72
2023-05-27T23:11:49.887Z,11.57
2023-05-27T23:16:53.658Z,11.49
2023-05-27T23:21:57.865Z,11.41
2023-05-27T23:27:00.087Z,11.36
2023-05-27T23:32:02.182Z,11.31
2023-05-27T23:37:24.385Z,11.27
2023-05-27T23:42:26.386Z,11.18
2023-05-27T23:47:48.561Z,11.19
2023-05-27T23:52:53.549Z,11.13
2023-05-27T23:57:58.163Z,11.11
